sensor_id;sensor_type;location;lat;lon;timestamp;pressure;altitude;pressure_sealevel;temperature;humidity
31121;BME280;17770;45.966;13.632;2023-01-31T00:00:52;100743.78;;;12.07;59.37
31121;BME280;17770;45.966;13.632;2023-01-31T00:03:18;100743.78;;;12.07;59.44
31121;BME280;17770;45.966;13.632;2023-01-31T00:05:43;100748.97;;;12.07;58.98
31121;BME280;17770;45.966;13.632;2023-01-31T00:08:09;100741.22;;;12.07;58.62
31121;BME280;17770;45.966;13.632;2023-01-31T00:10:37;100760.16;;;12.07;59.40
31121;BME280;17770;45.966;13.632;2023-01-31T00:13:02;100774.75;;;12.08;59.63
31121;BME280;17770;45.966;13.632;2023-01-31T00:15:28;100772.22;;;12.07;58.52
31121;BME280;17770;45.966;13.632;2023-01-31T00:17:54;100769.63;;;12.07;59.13
31121;BME280;17770;45.966;13.632;2023-01-31T00:20:20;100769.63;;;12.07;59.06
31121;BME280;17770;45.966;13.632;2023-01-31T00:22:46;100771.41;;;12.06;59.22
31121;BME280;17770;45.966;13.632;2023-01-31T00:25:12;100774.00;;;12.06;59.17
31121;BME280;17770;45.966;13.632;2023-01-31T00:27:37;100781.75;;;12.06;59.37
31121;BME280;17770;45.966;13.632;2023-01-31T00:30:04;100779.16;;;12.06;59.45
31121;BME280;17770;45.966;13.632;2023-01-31T00:32:30;100780.03;;;12.05;58.99
31121;BME280;17770;45.966;13.632;2023-01-31T00:34:56;100795.50;;;12.07;59.08
31121;BME280;17770;45.966;13.632;2023-01-31T00:37:21;100801.56;;;12.06;59.26
31121;BME280;17770;45.966;13.632;2023-01-31T00:39:47;100800.66;;;12.07;58.52
31121;BME280;17770;45.966;13.632;2023-01-31T00:42:16;100807.59;;;12.06;59.40
31121;BME280;17770;45.966;13.632;2023-01-31T00:44:42;100807.59;;;12.06;59.44
31121;BME280;17770;45.966;13.632;2023-01-31T00:47:07;100816.22;;;12.05;58.70
31121;BME280;17770;45.966;13.632;2023-01-31T00:49:33;100827.41;;;12.06;59.47
31121;BME280;17770;45.966;13.632;2023-01-31T00:51:59;100823.97;;;12.05;59.18
31121;BME280;17770;45.966;13.632;2023-01-31T00:54:25;100824.81;;;12.06;58.82
31121;BME280;17770;45.966;13.632;2023-01-31T00:56:51;100824.81;;;12.06;59.17
31121;BME280;17770;45.966;13.632;2023-01-31T00:59:17;100829.13;;;12.05;59.18
31121;BME280;17770;45.966;13.632;2023-01-31T01:01:43;100828.31;;;12.05;59.47
31121;BME280;17770;45.966;13.632;2023-01-31T01:04:10;100813.63;;;12.05;59.53
31121;BME280;17770;45.966;13.632;2023-01-31T01:06:37;100815.38;;;12.05;58.90
31121;BME280;17770;45.966;13.632;2023-01-31T01:09:04;100817.16;;;12.03;59.15
31121;BME280;17770;45.966;13.632;2023-01-31T01:11:31;100797.34;;;12.03;59.35
31121;BME280;17770;45.966;13.632;2023-01-31T01:13:58;100817.16;;;12.03;59.02
31121;BME280;17770;45.966;13.632;2023-01-31T01:16:26;100820.59;;;12.03;59.00
31121;BME280;17770;45.966;13.632;2023-01-31T01:18:52;100821.44;;;12.04;59.18
31121;BME280;17770;45.966;13.632;2023-01-31T01:21:20;100811.13;;;12.02;58.63
31121;BME280;17770;45.966;13.632;2023-01-31T01:23:47;100828.34;;;12.03;58.91
31121;BME280;17770;45.966;13.632;2023-01-31T01:26:13;100828.38;;;12.02;59.50
31121;BME280;17770;45.966;13.632;2023-01-31T01:28:40;100842.16;;;12.02;58.96
31121;BME280;17770;45.966;13.632;2023-01-31T01:31:06;100853.34;;;12.03;58.73
31121;BME280;17770;45.966;13.632;2023-01-31T01:33:32;100856.81;;;12.02;59.13
31121;BME280;17770;45.966;13.632;2023-01-31T01:35:59;100838.72;;;12.02;58.87
31121;BME280;17770;45.966;13.632;2023-01-31T01:38:26;100860.28;;;12.01;58.79
31121;BME280;17770;45.966;13.632;2023-01-31T01:40:52;100880.97;;;12.01;59.52
31121;BME280;17770;45.966;13.632;2023-01-31T01:43:20;100855.97;;;12.01;58.97
31121;BME280;17770;45.966;13.632;2023-01-31T01:45:46;100868.91;;;12.01;59.38
31121;BME280;17770;45.966;13.632;2023-01-31T01:48:14;100891.31;;;12.01;58.87
31121;BME280;17770;45.966;13.632;2023-01-31T01:50:43;100880.09;;;12.00;58.97
31121;BME280;17770;45.966;13.632;2023-01-31T01:53:15;100874.94;;;12.00;58.88
31121;BME280;17770;45.966;13.632;2023-01-31T01:55:43;100862.00;;;12.00;59.69
31121;BME280;17770;45.966;13.632;2023-01-31T01:58:13;100865.47;;;12.01;58.63
31121;BME280;17770;45.966;13.632;2023-01-31T02:00:42;100868.09;;;11.99;59.10
31121;BME280;17770;45.966;13.632;2023-01-31T02:03:10;100873.25;;;11.99;59.53
31121;BME280;17770;45.966;13.632;2023-01-31T02:05:40;100890.44;;;12.00;59.50
31121;BME280;17770;45.966;13.632;2023-01-31T02:08:09;100894.78;;;12.00;58.93
31121;BME280;17770;45.966;13.632;2023-01-31T02:11:22;100887.84;;;12.00;59.26
31121;BME280;17770;45.966;13.632;2023-01-31T02:13:22;100887.91;;;11.99;59.37
31121;BME280;17770;45.966;13.632;2023-01-31T02:15:47;100899.09;;;11.99;59.23
31121;BME280;17770;45.966;13.632;2023-01-31T02:18:13;100894.84;;;11.98;58.80
31121;BME280;17770;45.966;13.632;2023-01-31T02:29:22;100900.81;;;11.99;59.46
31121;BME280;17770;45.966;13.632;2023-01-31T02:34:18;100911.16;;;11.99;59.00
31121;BME280;17770;45.966;13.632;2023-01-31T02:39:30;100906.91;;;11.98;59.28
31121;BME280;17770;45.966;13.632;2023-01-31T02:44:51;100899.16;;;11.98;59.00
31121;BME280;17770;45.966;13.632;2023-01-31T02:47:29;100911.22;;;11.97;59.85
31121;BME280;17770;45.966;13.632;2023-01-31T02:50:02;100910.34;;;11.97;59.10
31121;BME280;17770;45.966;13.632;2023-01-31T02:52:31;100907.75;;;11.97;58.92
31121;BME280;17770;45.966;13.632;2023-01-31T02:57:54;100920.69;;;11.97;59.46
31121;BME280;17770;45.966;13.632;2023-01-31T03:00:22;100918.97;;;11.97;58.37
31121;BME280;17770;45.966;13.632;2023-01-31T03:02:49;100928.47;;;11.95;59.29
31121;BME280;17770;45.966;13.632;2023-01-31T03:05:16;100925.91;;;11.95;59.51
31121;BME280;17770;45.966;13.632;2023-01-31T03:07:46;100933.69;;;11.94;58.85
31121;BME280;17770;45.966;13.632;2023-01-31T03:10:33;100929.38;;;11.94;58.82
31121;BME280;17770;45.966;13.632;2023-01-31T03:13:18;100923.34;;;11.94;58.37
31121;BME280;17770;45.966;13.632;2023-01-31T03:19:01;100948.38;;;11.93;59.35
31121;BME280;17770;45.966;13.632;2023-01-31T03:21:43;100943.22;;;11.93;59.50
31121;BME280;17770;45.966;13.632;2023-01-31T03:24:09;100946.56;;;11.95;59.63
31121;BME280;17770;45.966;13.632;2023-01-31T03:26:37;100936.31;;;11.92;58.92
31121;BME280;17770;45.966;13.632;2023-01-31T03:29:03;100950.97;;;11.93;58.89
31121;BME280;17770;45.966;13.632;2023-01-31T03:31:32;100957.84;;;11.93;58.30
31121;BME280;17770;45.966;13.632;2023-01-31T03:34:04;100944.94;;;11.93;59.16
31121;BME280;17770;45.966;13.632;2023-01-31T03:36:34;100956.13;;;11.93;59.42
31121;BME280;17770;45.966;13.632;2023-01-31T03:42:07;100970.78;;;11.93;58.63
31121;BME280;17770;45.966;13.632;2023-01-31T03:44:45;100969.06;;;11.93;58.42
31121;BME280;17770;45.966;13.632;2023-01-31T03:47:16;100966.47;;;11.93;58.37
31121;BME280;17770;45.966;13.632;2023-01-31T03:49:45;100967.34;;;11.92;58.67
31121;BME280;17770;45.966;13.632;2023-01-31T03:52:15;100970.78;;;11.93;58.91
31121;BME280;17770;45.966;13.632;2023-01-31T03:54:46;100974.22;;;11.92;59.30
31121;BME280;17770;45.966;13.632;2023-01-31T03:57:16;100974.22;;;11.92;59.14
31121;BME280;17770;45.966;13.632;2023-01-31T03:59:43;100985.44;;;11.92;58.63
31121;BME280;17770;45.966;13.632;2023-01-31T04:02:11;100987.16;;;11.92;59.23
31121;BME280;17770;45.966;13.632;2023-01-31T04:04:42;100976.84;;;11.90;58.69
31121;BME280;17770;45.966;13.632;2023-01-31T04:07:10;100982.03;;;11.90;58.68
31121;BME280;17770;45.966;13.632;2023-01-31T04:09:37;100973.44;;;11.90;58.87
31121;BME280;17770;45.966;13.632;2023-01-31T04:12:03;100984.59;;;11.90;59.02
31121;BME280;17770;45.966;13.632;2023-01-31T04:14:29;100978.59;;;11.90;58.89
31121;BME280;17770;45.966;13.632;2023-01-31T04:16:55;100969.13;;;11.89;59.55
31121;BME280;17770;45.966;13.632;2023-01-31T04:19:21;100968.31;;;11.88;58.62
31121;BME280;17770;45.966;13.632;2023-01-31T04:21:47;100964.84;;;11.89;59.45
31121;BME280;17770;45.966;13.632;2023-01-31T04:24:13;100971.72;;;11.89;58.69
31121;BME280;17770;45.966;13.632;2023-01-31T04:26:38;100978.66;;;11.88;58.43
31121;BME280;17770;45.966;13.632;2023-01-31T04:29:04;100970.91;;;11.88;58.62
31121;BME280;17770;45.966;13.632;2023-01-31T04:31:30;100976.06;;;11.88;58.35
31121;BME280;17770;45.966;13.632;2023-01-31T04:33:56;100980.38;;;11.88;59.11
31121;BME280;17770;45.966;13.632;2023-01-31T04:36:25;100973.47;;;11.88;58.90
31121;BME280;17770;45.966;13.632;2023-01-31T04:38:51;100975.22;;;11.88;58.45
31121;BME280;17770;45.966;13.632;2023-01-31T04:41:17;100979.53;;;11.87;59.03
31121;BME280;17770;45.966;13.632;2023-01-31T04:43:43;100989.03;;;11.87;58.80
31121;BME280;17770;45.966;13.632;2023-01-31T04:46:09;100990.75;;;11.86;58.69
31121;BME280;17770;45.966;13.632;2023-01-31T04:48:35;100992.44;;;11.87;59.16
31121;BME280;17770;45.966;13.632;2023-01-31T04:51:01;100999.38;;;11.85;59.50
31121;BME280;17770;45.966;13.632;2023-01-31T04:53:27;100999.38;;;11.85;58.33
31121;BME280;17770;45.966;13.632;2023-01-31T04:55:53;100996.78;;;11.85;58.67
31121;BME280;17770;45.966;13.632;2023-01-31T04:58:19;100999.38;;;11.85;58.76
31121;BME280;17770;45.966;13.632;2023-01-31T05:00:45;100997.72;;;11.82;59.07
31121;BME280;17770;45.966;13.632;2023-01-31T05:03:11;101007.16;;;11.83;59.12
31121;BME280;17770;45.966;13.632;2023-01-31T05:05:37;101002.00;;;11.83;58.14
31121;BME280;17770;45.966;13.632;2023-01-31T05:08:03;101002.91;;;11.82;58.38
31121;BME280;17770;45.966;13.632;2023-01-31T05:10:29;101007.16;;;11.83;59.03
31121;BME280;17770;45.966;13.632;2023-01-31T05:12:55;101008.06;;;11.82;59.40
31121;BME280;17770;45.966;13.632;2023-01-31T05:15:21;101006.38;;;11.82;58.71
31121;BME280;17770;45.966;13.632;2023-01-31T05:17:51;101005.47;;;11.82;58.38
31121;BME280;17770;45.966;13.632;2023-01-31T05:20:17;100990.88;;;11.82;58.76
31121;BME280;17770;45.966;13.632;2023-01-31T05:22:47;100993.47;;;11.82;58.74
31121;BME280;17770;45.966;13.632;2023-01-31T05:25:13;101002.06;;;11.80;58.38
31121;BME280;17770;45.966;13.632;2023-01-31T05:27:40;100995.19;;;11.81;58.81
31121;BME280;17770;45.966;13.632;2023-01-31T05:30:06;100991.75;;;11.80;59.27
31121;BME280;17770;45.966;13.632;2023-01-31T05:32:32;101000.34;;;11.81;59.05
31121;BME280;17770;45.966;13.632;2023-01-31T05:34:58;101008.16;;;11.79;58.35
31121;BME280;17770;45.966;13.632;2023-01-31T05:37:23;101014.13;;;11.80;59.22
31121;BME280;17770;45.966;13.632;2023-01-31T05:39:49;101022.75;;;11.80;58.39
31121;BME280;17770;45.966;13.632;2023-01-31T05:42:15;101018.47;;;11.79;58.40
31121;BME280;17770;45.966;13.632;2023-01-31T05:44:41;101027.97;;;11.79;58.84
31121;BME280;17770;45.966;13.632;2023-01-31T05:47:07;101025.38;;;11.79;58.07
31121;BME280;17770;45.966;13.632;2023-01-31T05:49:33;101033.97;;;11.79;58.60
31121;BME280;17770;45.966;13.632;2023-01-31T05:51:59;101038.28;;;11.79;58.45
31121;BME280;17770;45.966;13.632;2023-01-31T05:54:25;101030.53;;;11.79;58.78
31121;BME280;17770;45.966;13.632;2023-01-31T05:56:51;101023.69;;;11.78;58.81
31121;BME280;17770;45.966;13.632;2023-01-31T05:59:16;101020.25;;;11.77;58.32
31121;BME280;17770;45.966;13.632;2023-01-31T06:01:42;101025.41;;;11.77;58.96
31121;BME280;17770;45.966;13.632;2023-01-31T06:04:08;101018.56;;;11.76;58.89
31121;BME280;17770;45.966;13.632;2023-01-31T06:06:34;101016.84;;;11.75;59.42
31121;BME280;17770;45.966;13.632;2023-01-31T06:09:00;101022.81;;;11.77;59.38
31121;BME280;17770;45.966;13.632;2023-01-31T06:11:27;101027.19;;;11.75;59.27
31121;BME280;17770;45.966;13.632;2023-01-31T06:13:53;101032.34;;;11.75;58.97
31121;BME280;17770;45.966;13.632;2023-01-31T06:16:22;101028.94;;;11.73;59.12
31121;BME280;17770;45.966;13.632;2023-01-31T06:18:48;101033.28;;;11.73;58.01
31121;BME280;17770;45.966;13.632;2023-01-31T06:21:14;101036.69;;;11.73;59.35
31121;BME280;17770;45.966;13.632;2023-01-31T06:23:41;101042.75;;;11.72;59.14
31121;BME280;17770;45.966;13.632;2023-01-31T06:26:11;101045.34;;;11.72;58.25
31121;BME280;17770;45.966;13.632;2023-01-31T06:28:36;101058.25;;;11.72;58.39
31121;BME280;17770;45.966;13.632;2023-01-31T06:31:06;101058.25;;;11.72;59.20
31121;BME280;17770;45.966;13.632;2023-01-31T06:33:32;101066.00;;;11.72;58.89
31121;BME280;17770;45.966;13.632;2023-01-31T06:35:58;101072.06;;;11.71;58.73
31121;BME280;17770;45.966;13.632;2023-01-31T06:38:25;101072.03;;;11.73;59.19
31121;BME280;17770;45.966;13.632;2023-01-31T06:40:51;101085.00;;;11.71;58.79
31121;BME280;17770;45.966;13.632;2023-01-31T06:43:16;101085.78;;;11.73;58.41
31121;BME280;17770;45.966;13.632;2023-01-31T06:45:42;101105.63;;;11.73;58.27
31121;BME280;17770;45.966;13.632;2023-01-31T06:48:11;101097.91;;;11.71;58.14
31121;BME280;17770;45.966;13.632;2023-01-31T06:50:37;101100.50;;;11.71;58.32
31121;BME280;17770;45.966;13.632;2023-01-31T06:53:03;101110.00;;;11.69;57.98
31121;BME280;17770;45.966;13.632;2023-01-31T06:55:29;101109.97;;;11.71;58.25
31121;BME280;17770;45.966;13.632;2023-01-31T06:57:54;101116.78;;;11.73;58.91
31121;BME280;17770;45.966;13.632;2023-01-31T07:00:21;101116.00;;;11.71;58.85
31121;BME280;17770;45.966;13.632;2023-01-31T07:02:47;101116.00;;;11.71;58.12
31121;BME280;17770;45.966;13.632;2023-01-31T07:05:13;101121.16;;;11.71;58.76
31121;BME280;17770;45.966;13.632;2023-01-31T07:07:39;101132.31;;;11.72;58.39
31121;BME280;17770;45.966;13.632;2023-01-31T07:10:05;101142.69;;;11.70;58.07
31121;BME280;17770;45.966;13.632;2023-01-31T07:12:31;101149.63;;;11.70;57.98
31121;BME280;17770;45.966;13.632;2023-01-31T07:14:57;101155.59;;;11.70;58.52
31121;BME280;17770;45.966;13.632;2023-01-31T07:17:22;101152.19;;;11.70;57.91
31121;BME280;17770;45.966;13.632;2023-01-31T07:19:48;101149.63;;;11.70;58.61
31121;BME280;17770;45.966;13.632;2023-01-31T07:22:14;101155.59;;;11.70;58.55
31121;BME280;17770;45.966;13.632;2023-01-31T07:24:40;101147.03;;;11.68;58.58
31121;BME280;17770;45.966;13.632;2023-01-31T07:27:06;101148.78;;;11.68;58.58
31121;BME280;17770;45.966;13.632;2023-01-31T07:29:32;101152.19;;;11.68;58.38
31121;BME280;17770;45.966;13.632;2023-01-31T07:31:57;101159.94;;;11.68;58.55
31121;BME280;17770;45.966;13.632;2023-01-31T07:34:23;101165.16;;;11.67;58.27
31121;BME280;17770;45.966;13.632;2023-01-31T07:36:49;101163.44;;;11.67;58.60
31121;BME280;17770;45.966;13.632;2023-01-31T07:39:15;101172.06;;;11.66;58.88
31121;BME280;17770;45.966;13.632;2023-01-31T07:41:41;101181.59;;;11.64;57.97
31121;BME280;17770;45.966;13.632;2023-01-31T07:44:07;101185.03;;;11.65;58.33
31121;BME280;17770;45.966;13.632;2023-01-31T07:46:36;101174.69;;;11.63;58.49
31121;BME280;17770;45.966;13.632;2023-01-31T07:49:02;101191.91;;;11.64;58.62
31121;BME280;17770;45.966;13.632;2023-01-31T07:51:28;101192.78;;;11.63;58.18
31121;BME280;17770;45.966;13.632;2023-01-31T07:53:54;101187.59;;;11.63;58.66
31121;BME280;17770;45.966;13.632;2023-01-31T07:56:20;101188.47;;;11.64;58.42
31121;BME280;17770;45.966;13.632;2023-01-31T07:58:47;101197.94;;;11.63;58.96
31121;BME280;17770;45.966;13.632;2023-01-31T08:01:14;101207.41;;;11.63;58.94
31121;BME280;17770;45.966;13.632;2023-01-31T08:03:59;101200.53;;;11.63;57.81
31121;BME280;17770;45.966;13.632;2023-01-31T08:06:25;101204.88;;;11.61;58.38
31121;BME280;17770;45.966;13.632;2023-01-31T08:08:52;101209.16;;;11.61;58.63
31121;BME280;17770;45.966;13.632;2023-01-31T08:11:18;101208.28;;;11.62;58.10
31121;BME280;17770;45.966;13.632;2023-01-31T08:13:43;101206.59;;;11.61;58.76
31121;BME280;17770;45.966;13.632;2023-01-31T08:16:09;101210.03;;;11.61;58.27
31121;BME280;17770;45.966;13.632;2023-01-31T08:18:36;101206.59;;;11.61;58.23
31121;BME280;17770;45.966;13.632;2023-01-31T08:21:02;101209.16;;;11.61;58.38
31121;BME280;17770;45.966;13.632;2023-01-31T08:23:28;101213.47;;;11.60;57.69
31121;BME280;17770;45.966;13.632;2023-01-31T08:26:13;101222.97;;;11.60;58.27
31121;BME280;17770;45.966;13.632;2023-01-31T08:28:40;101209.16;;;11.61;58.72
31121;BME280;17770;45.966;13.632;2023-01-31T08:31:09;101227.25;;;11.61;58.65
31121;BME280;17770;45.966;13.632;2023-01-31T08:33:36;101226.44;;;11.59;58.55
31121;BME280;17770;45.966;13.632;2023-01-31T08:36:09;101223.00;;;11.58;57.99
31121;BME280;17770;45.966;13.632;2023-01-31T08:38:35;101218.63;;;11.60;58.67
31121;BME280;17770;45.966;13.632;2023-01-31T08:41:01;101228.97;;;11.60;58.24
31121;BME280;17770;45.966;13.632;2023-01-31T08:43:27;101223.81;;;11.60;58.78
31121;BME280;17770;45.966;13.632;2023-01-31T08:45:53;101230.75;;;11.58;57.79
31121;BME280;17770;45.966;13.632;2023-01-31T08:48:19;101229.91;;;11.58;57.98
31121;BME280;17770;45.966;13.632;2023-01-31T08:50:44;101233.34;;;11.58;58.24
31121;BME280;17770;45.966;13.632;2023-01-31T08:53:10;101235.94;;;11.58;58.59
31121;BME280;17770;45.966;13.632;2023-01-31T08:55:36;101228.19;;;11.58;57.83
31121;BME280;17770;45.966;13.632;2023-01-31T08:58:02;101230.75;;;11.58;58.27
31121;BME280;17770;45.966;13.632;2023-01-31T09:00:28;101231.59;;;11.59;57.77
31121;BME280;17770;45.966;13.632;2023-01-31T09:02:55;101233.31;;;11.60;58.97
31121;BME280;17770;45.966;13.632;2023-01-31T09:05:22;101235.03;;;11.59;58.12
31121;BME280;17770;45.966;13.632;2023-01-31T09:07:48;101233.34;;;11.58;58.01
31121;BME280;17770;45.966;13.632;2023-01-31T09:10:13;101232.47;;;11.58;58.27
31121;BME280;17770;45.966;13.632;2023-01-31T09:12:39;101239.31;;;11.60;57.71
31121;BME280;17770;45.966;13.632;2023-01-31T09:15:05;101232.41;;;11.61;57.97
31121;BME280;17770;45.966;13.632;2023-01-31T09:17:31;101243.66;;;11.60;58.46
31121;BME280;17770;45.966;13.632;2023-01-31T09:19:57;101236.75;;;11.59;57.64
31121;BME280;17770;45.966;13.632;2023-01-31T09:22:23;101242.78;;;11.59;58.60
31121;BME280;17770;45.966;13.632;2023-01-31T09:24:49;101241.09;;;11.58;58.23
31121;BME280;17770;45.966;13.632;2023-01-31T09:27:15;101249.63;;;11.60;57.61
31121;BME280;17770;45.966;13.632;2023-01-31T09:29:40;101255.72;;;11.58;58.07
31121;BME280;17770;45.966;13.632;2023-01-31T09:32:06;101251.44;;;11.58;57.71
31121;BME280;17770;45.966;13.632;2023-01-31T09:34:32;101258.28;;;11.59;57.79
31121;BME280;17770;45.966;13.632;2023-01-31T09:36:58;101261.75;;;11.58;58.17
31121;BME280;17770;45.966;13.632;2023-01-31T09:39:24;101259.19;;;11.57;58.04
31121;BME280;17770;45.966;13.632;2023-01-31T09:41:57;101261.72;;;11.60;57.46
31121;BME280;17770;45.966;13.632;2023-01-31T09:44:28;101264.31;;;11.60;57.49
31121;BME280;17770;45.966;13.632;2023-01-31T09:46:56;101253.97;;;11.60;58.23
31121;BME280;17770;45.966;13.632;2023-01-31T09:49:31;101251.41;;;11.60;58.18
31121;BME280;17770;45.966;13.632;2023-01-31T09:52:00;101255.69;;;11.59;58.14
31121;BME280;17770;45.966;13.632;2023-01-31T09:54:34;101255.72;;;11.58;58.14
31121;BME280;17770;45.966;13.632;2023-01-31T10:07:09;101255.72;;;11.58;58.46
31121;BME280;17770;45.966;13.632;2023-01-31T10:09:45;101254.00;;;11.57;57.92
31121;BME280;17770;45.966;13.632;2023-01-31T10:12:18;101255.72;;;11.58;57.90
31121;BME280;17770;45.966;13.632;2023-01-31T10:14:47;101252.28;;;11.57;57.58
31121;BME280;17770;45.966;13.632;2023-01-31T10:17:28;101254.00;;;11.57;58.18
31121;BME280;17770;45.966;13.632;2023-01-31T10:20:07;101254.00;;;11.57;58.33
31121;BME280;17770;45.966;13.632;2023-01-31T10:22:43;101249.72;;;11.56;57.41
31121;BME280;17770;45.966;13.632;2023-01-31T10:25:26;101251.44;;;11.57;57.46
31121;BME280;17770;45.966;13.632;2023-01-31T10:27:56;101252.28;;;11.57;57.83
31121;BME280;17770;45.966;13.632;2023-01-31T10:30:25;101247.13;;;11.57;57.82
31121;BME280;17770;45.966;13.632;2023-01-31T10:32:54;101254.00;;;11.57;57.77
31121;BME280;17770;45.966;13.632;2023-01-31T10:35:25;101251.47;;;11.55;57.62
31121;BME280;17770;45.966;13.632;2023-01-31T10:37:59;101251.44;;;11.57;57.39
31121;BME280;17770;45.966;13.632;2023-01-31T10:40:37;101243.69;;;11.57;57.35
31121;BME280;17770;45.966;13.632;2023-01-31T10:43:21;101241.13;;;11.55;58.40
31121;BME280;17770;45.966;13.632;2023-01-31T10:45:52;101233.34;;;11.57;58.44
31121;BME280;17770;45.966;13.632;2023-01-31T10:48:20;101237.69;;;11.56;58.03
31121;BME280;17770;45.966;13.632;2023-01-31T10:50:58;101228.22;;;11.55;57.66
31121;BME280;17770;45.966;13.632;2023-01-31T10:53:46;101229.09;;;11.54;57.77
31121;BME280;17770;45.966;13.632;2023-01-31T10:58:53;101219.63;;;11.55;57.16
31121;BME280;17770;45.966;13.632;2023-01-31T11:01:19;101222.22;;;11.55;57.94
31121;BME280;17770;45.966;13.632;2023-01-31T11:03:49;101226.53;;;11.54;58.18
31121;BME280;17770;45.966;13.632;2023-01-31T11:06:16;101221.34;;;11.54;57.98
31121;BME280;17770;45.966;13.632;2023-01-31T11:08:49;101220.47;;;11.55;58.21
31121;BME280;17770;45.966;13.632;2023-01-31T11:11:18;101223.06;;;11.54;57.59
31121;BME280;17770;45.966;13.632;2023-01-31T11:16:22;101214.47;;;11.55;57.56
31121;BME280;17770;45.966;13.632;2023-01-31T11:18:48;101216.19;;;11.54;57.33
31121;BME280;17770;45.966;13.632;2023-01-31T11:21:19;101210.13;;;11.55;57.69
31121;BME280;17770;45.966;13.632;2023-01-31T11:23:46;101200.69;;;11.54;57.79
31121;BME280;17770;45.966;13.632;2023-01-31T11:26:23;101209.31;;;11.55;57.33
31121;BME280;17770;45.966;13.632;2023-01-31T11:28:49;101211.09;;;11.51;58.53
31121;BME280;17770;45.966;13.632;2023-01-31T11:31:22;101208.50;;;11.51;57.89
31121;BME280;17770;45.966;13.632;2023-01-31T11:33:59;101204.16;;;11.52;58.50
31121;BME280;17770;45.966;13.632;2023-01-31T11:36:25;101203.31;;;11.53;58.35
31121;BME280;17770;45.966;13.632;2023-01-31T11:38:55;101195.56;;;11.53;58.47
31121;BME280;17770;45.966;13.632;2023-01-31T11:41:34;101199.00;;;11.53;58.83
31121;BME280;17770;45.966;13.632;2023-01-31T11:44:11;101188.66;;;11.52;58.24
31121;BME280;17770;45.966;13.632;2023-01-31T11:46:43;101188.66;;;11.53;58.76
31121;BME280;17770;45.966;13.632;2023-01-31T11:49:10;101188.59;;;11.56;57.58
31121;BME280;17770;45.966;13.632;2023-01-31T11:51:37;101173.97;;;11.55;58.58
31121;BME280;17770;45.966;13.632;2023-01-31T11:54:04;101175.72;;;11.55;58.15
31121;BME280;17770;45.966;13.632;2023-01-31T11:56:33;101171.38;;;11.55;57.98
31121;BME280;17770;45.966;13.632;2023-01-31T11:59:01;101171.38;;;11.55;58.14
31121;BME280;17770;45.966;13.632;2023-01-31T12:01:30;101172.25;;;11.56;57.50
31121;BME280;17770;45.966;13.632;2023-01-31T12:03:58;101170.53;;;11.56;57.59
31121;BME280;17770;45.966;13.632;2023-01-31T12:06:27;101172.25;;;11.56;58.21
31121;BME280;17770;45.966;13.632;2023-01-31T12:08:54;101170.53;;;11.56;57.54
31121;BME280;17770;45.966;13.632;2023-01-31T12:13:46;101172.25;;;11.56;58.15
31121;BME280;17770;45.966;13.632;2023-01-31T12:16:13;101161.94;;;11.54;58.08
31121;BME280;17770;45.966;13.632;2023-01-31T12:26:31;101159.38;;;11.54;57.40
31121;BME280;17770;45.966;13.632;2023-01-31T12:42:49;101146.53;;;11.51;58.52
31121;BME280;17770;45.966;13.632;2023-01-31T12:48:06;101140.50;;;11.51;57.45
31121;BME280;17770;45.966;13.632;2023-01-31T12:53:19;101144.81;;;11.50;58.22
31121;BME280;17770;45.966;13.632;2023-01-31T13:01:19;101148.25;;;11.51;58.33
31121;BME280;17770;45.966;13.632;2023-01-31T13:04:04;101148.28;;;11.49;58.48
31121;BME280;17770;45.966;13.632;2023-01-31T13:06:37;101153.41;;;11.51;58.92
31121;BME280;17770;45.966;13.632;2023-01-31T13:09:09;101143.09;;;11.51;58.99
31121;BME280;17770;45.966;13.632;2023-01-31T13:11:38;101143.94;;;11.51;58.95
31121;BME280;17770;45.966;13.632;2023-01-31T13:14:08;101148.22;;;11.52;58.04
31121;BME280;17770;45.966;13.632;2023-01-31T13:16:38;101142.19;;;11.53;58.42
31121;BME280;17770;45.966;13.632;2023-01-31T13:19:09;101136.13;;;11.54;59.14
31121;BME280;17770;45.966;13.632;2023-01-31T13:21:38;101143.03;;;11.52;58.75
31121;BME280;17770;45.966;13.632;2023-01-31T13:24:11;101133.56;;;11.53;58.04
31121;BME280;17770;45.966;13.632;2023-01-31T13:29:23;101124.06;;;11.55;58.82
31121;BME280;17770;45.966;13.632;2023-01-31T13:31:59;101119.75;;;11.54;58.46
31121;BME280;17770;45.966;13.632;2023-01-31T13:37:03;101127.47;;;11.55;58.57
31121;BME280;17770;45.966;13.632;2023-01-31T13:39:33;101123.16;;;11.56;59.20
31121;BME280;17770;45.966;13.632;2023-01-31T13:42:00;101125.72;;;11.57;59.26
31121;BME280;17770;45.966;13.632;2023-01-31T13:44:26;101117.97;;;11.57;58.46
31121;BME280;17770;45.966;13.632;2023-01-31T13:46:57;101124.84;;;11.58;58.40
31121;BME280;17770;45.966;13.632;2023-01-31T13:49:28;101121.34;;;11.61;59.34
31121;BME280;17770;45.966;13.632;2023-01-31T13:51:57;101124.78;;;11.61;58.97
31121;BME280;17770;45.966;13.632;2023-01-31T13:54:26;101123.88;;;11.62;58.94
31121;BME280;17770;45.966;13.632;2023-01-31T13:56:54;101127.34;;;11.64;59.14
31121;BME280;17770;45.966;13.632;2023-01-31T13:59:23;101115.28;;;11.65;58.37
31121;BME280;17770;45.966;13.632;2023-01-31T14:01:50;101117.81;;;11.66;59.18
31121;BME280;17770;45.966;13.632;2023-01-31T14:11:56;101110.91;;;11.67;59.26
31121;BME280;17770;45.966;13.632;2023-01-31T14:17:02;101107.41;;;11.69;59.20